Time;durP1;ratioP1;P1;durP2;ratioP2;P2;SDS_P1;SDS_P2;PMS_P1;PMS_P2;Temp;Humidity;BMP_temperature;BMP_pressure;BME280_temperature;BME280_humidity;BME280_pressure;Samples;Min_cycle;Max_cycle;Signal;HPM_P1;HPM_P2
2023/04/24 00:02:15;;;;;;;24.92;13.55;;;7.30;99.90;;;;;;5060219;28;20027;-74
2023/04/24 00:04:44;;;;;;;23.83;14.20;;;7.40;99.90;;;;;;5066282;28;20399;-73
2023/04/24 00:07:13;;;;;;;24.17;13.52;;;7.40;99.90;;;;;;5045646;28;20051;-74
2023/04/24 00:09:38;;;;;;;24.00;13.35;;;7.30;99.90;;;;;;5063982;28;20046;-74
2023/04/24 00:12:04;;;;;;;22.45;13.57;;;7.30;99.90;;;;;;5071793;28;20025;-73
2023/04/24 00:14:31;;;;;;;24.35;13.32;;;7.20;99.90;;;;;;5068557;28;20024;-74
2023/04/24 00:16:56;;;;;;;22.13;13.48;;;7.20;99.90;;;;;;5063522;28;20099;-74
2023/04/24 00:19:22;;;;;;;22.75;13.85;;;7.20;99.90;;;;;;5049649;28;20378;-74
2023/04/24 00:21:51;;;;;;;25.50;14.75;;;7.10;99.90;;;;;;5080736;28;20542;-74
2023/04/24 00:24:18;;;;;;;22.30;13.63;;;7.10;99.90;;;;;;5064205;28;20056;-74
2023/04/24 00:26:43;;;;;;;22.50;13.98;;;7.00;99.90;;;;;;5062714;28;20130;-74
2023/04/24 00:29:09;;;;;;;23.70;14.38;;;7.00;99.90;;;;;;5068877;28;20103;-74
2023/04/24 00:31:34;;;;;;;24.83;14.70;;;7.00;99.90;;;;;;5049212;28;20043;-74
2023/04/24 00:34:02;;;;;;;24.88;15.05;;;7.00;99.90;;;;;;5077033;28;20035;-74
2023/04/24 00:36:27;;;;;;;25.17;14.88;;;6.90;99.90;;;;;;5060845;28;20141;-74
2023/04/24 00:38:54;;;;;;;25.25;15.10;;;6.90;99.90;;;;;;5064825;28;20557;-74
2023/04/24 00:41:20;;;;;;;25.52;15.80;;;6.80;99.90;;;;;;5062423;28;20032;-74
2023/04/24 00:43:46;;;;;;;25.52;14.02;;;6.80;99.90;;;;;;5068869;28;20111;-75
2023/04/24 00:46:12;;;;;;;22.70;13.43;;;6.80;99.90;;;;;;5064148;28;20173;-73
2023/04/24 00:48:39;;;;;;;20.00;13.30;;;6.80;99.90;;;;;;5064785;28;20042;-76
2023/04/24 00:51:05;;;;;;;22.50;13.13;;;6.70;99.90;;;;;;5049839;28;20031;-76
2023/04/24 00:53:31;;;;;;;26.05;14.20;;;6.70;99.90;;;;;;5059870;28;20032;-74
2023/04/24 00:55:57;;;;;;;24.35;12.98;;;6.70;99.90;;;;;;5060399;28;20043;-76
2023/04/24 00:58:24;;;;;;;23.98;14.30;;;6.60;99.90;;;;;;5053912;28;20478;-76
2023/04/24 01:00:52;;;;;;;19.98;12.82;;;6.60;99.90;;;;;;5084681;28;20024;-75
2023/04/24 01:03:23;;;;;;;23.92;13.90;;;6.60;99.90;;;;;;5079859;28;20020;-75
2023/04/24 01:05:50;;;;;;;24.33;14.25;;;6.60;99.90;;;;;;5074542;28;20104;-75
2023/04/24 01:08:16;;;;;;;23.52;14.38;;;6.50;99.90;;;;;;5079934;28;20035;-75
2023/04/24 01:10:43;;;;;;;28.10;15.02;;;6.50;99.90;;;;;;5068401;28;20025;-74
2023/04/24 01:13:09;;;;;;;26.75;16.02;;;6.40;99.90;;;;;;5044257;28;20078;-75
2023/04/24 01:15:35;;;;;;;30.25;16.20;;;6.40;99.90;;;;;;5081178;28;20032;-75
2023/04/24 01:18:01;;;;;;;25.67;14.75;;;6.40;99.90;;;;;;5061520;28;20274;-74
2023/04/24 01:20:26;;;;;;;24.17;14.38;;;6.40;99.90;;;;;;5064809;28;20697;-75
2023/04/24 01:22:54;;;;;;;24.38;14.60;;;6.40;99.90;;;;;;5060673;28;20640;-75
2023/04/24 01:25:20;;;;;;;23.90;14.80;;;6.30;99.90;;;;;;5056331;28;20477;-75
2023/04/24 01:27:46;;;;;;;26.42;15.10;;;6.40;99.90;;;;;;5074596;28;20040;-75
2023/04/24 01:30:12;;;;;;;27.67;14.85;;;6.40;99.90;;;;;;5044255;28;20119;-75
2023/04/24 01:32:39;;;;;;;26.00;14.48;;;6.40;99.90;;;;;;5058766;28;20036;-76
2023/04/24 01:35:06;;;;;;;24.30;13.63;;;6.40;99.90;;;;;;5068306;28;20047;-75
2023/04/24 01:37:32;;;;;;;23.65;14.57;;;6.40;99.90;;;;;;5072304;28;20052;-75
2023/04/24 01:39:58;;;;;;;23.90;13.60;;;6.40;99.90;;;;;;5059103;28;20029;-75
2023/04/24 01:42:24;;;;;;;26.35;12.82;;;6.40;99.90;;;;;;5070495;28;20032;-75
2023/04/24 01:44:51;;;;;;;19.95;12.40;;;6.40;99.90;;;;;;5079052;28;20470;-76
2023/04/24 01:47:17;;;;;;;21.60;12.98;;;6.40;99.90;;;;;;5063251;28;20887;-75
2023/04/24 01:49:42;;;;;;;23.00;13.57;;;6.30;99.90;;;;;;5048300;28;20029;-76
2023/04/24 01:52:08;;;;;;;23.50;12.60;;;6.30;99.90;;;;;;5047432;28;20049;-75
2023/04/24 01:54:34;;;;;;;22.73;13.32;;;6.40;99.90;;;;;;5058912;28;20036;-75
2023/04/24 01:57:00;;;;;;;26.48;14.38;;;6.50;99.90;;;;;;5039909;28;20036;-75
2023/04/24 01:59:28;;;;;;;22.20;14.32;;;6.50;99.90;;;;;;5056278;28;20032;-75
2023/04/24 02:01:54;;;;;;;23.75;14.18;;;6.60;99.90;;;;;;5061814;28;20039;-76
2023/04/24 02:04:19;;;;;;;24.10;13.65;;;6.50;99.90;;;;;;5062142;28;20029;-75
2023/04/24 02:06:45;;;;;;;22.20;13.43;;;6.50;99.90;;;;;;5067722;28;20048;-75
2023/04/24 02:09:11;;;;;;;25.38;13.80;;;6.50;99.90;;;;;;5049377;28;20036;-74
2023/04/24 02:11:36;;;;;;;22.27;13.85;;;6.50;99.90;;;;;;5059325;28;20048;-75
2023/04/24 02:14:02;;;;;;;20.63;13.15;;;6.50;99.90;;;;;;5065070;28;20032;-76
2023/04/24 02:16:32;;;;;;;23.45;13.48;;;6.50;99.90;;;;;;5048383;28;20371;-74
2023/04/24 02:18:58;;;;;;;22.98;13.32;;;6.50;99.90;;;;;;5045388;28;20029;-75
2023/04/24 02:21:24;;;;;;;19.70;12.65;;;6.40;99.90;;;;;;5048400;28;20043;-75
2023/04/24 02:23:49;;;;;;;21.33;13.10;;;6.40;99.90;;;;;;5059942;28;20044;-75
2023/04/24 02:26:16;;;;;;;19.75;12.57;;;6.40;99.90;;;;;;5031310;28;20117;-75
2023/04/24 02:28:41;;;;;;;21.02;12.98;;;6.30;99.90;;;;;;5054043;28;20060;-75
2023/04/24 02:31:07;;;;;;;23.17;13.32;;;6.40;99.90;;;;;;5061685;28;20085;-75
2023/04/24 02:33:33;;;;;;;21.52;12.25;;;6.40;99.90;;;;;;5079357;28;20131;-75
2023/04/24 02:35:59;;;;;;;22.38;12.85;;;6.40;99.90;;;;;;5042764;28;20028;-74
2023/04/24 02:38:24;;;;;;;21.63;14.52;;;6.40;99.90;;;;;;5039948;28;20100;-74
2023/04/24 02:40:50;;;;;;;21.75;12.57;;;6.40;99.90;;;;;;5059120;28;20123;-76
2023/04/24 02:43:16;;;;;;;24.90;14.43;;;6.40;99.90;;;;;;5077862;28;20024;-76
2023/04/24 02:45:41;;;;;;;21.98;12.43;;;6.40;99.90;;;;;;5061536;28;20581;-75
2023/04/24 02:48:07;;;;;;;23.33;14.27;;;6.50;99.90;;;;;;5069734;28;21341;-75
2023/04/24 02:50:33;;;;;;;22.30;13.85;;;6.50;99.90;;;;;;5049421;28;20024;-75
2023/04/24 02:52:59;;;;;;;22.70;13.43;;;6.50;99.90;;;;;;5064524;28;20032;-75
2023/04/24 02:55:24;;;;;;;22.20;13.38;;;6.50;99.90;;;;;;5054487;28;20028;-75
2023/04/24 02:57:50;;;;;;;23.98;14.45;;;6.50;99.90;;;;;;5061264;28;20086;-75
2023/04/24 03:00:16;;;;;;;19.42;12.65;;;6.50;99.90;;;;;;5058465;28;20411;-74
2023/04/24 03:02:42;;;;;;;23.40;12.52;;;6.50;99.90;;;;;;5058907;28;20034;-74
2023/04/24 03:05:08;;;;;;;22.13;12.82;;;6.50;99.90;;;;;;5043261;28;20025;-75
2023/04/24 03:07:34;;;;;;;23.13;13.70;;;6.50;99.90;;;;;;5052944;28;20113;-75
2023/04/24 03:10:00;;;;;;;25.60;15.65;;;6.60;99.90;;;;;;5038241;28;20029;-75
2023/04/24 03:12:25;;;;;;;29.13;17.33;;;6.70;99.90;;;;;;5058171;28;20589;-75
2023/04/24 03:14:51;;;;;;;29.75;16.98;;;6.80;99.90;;;;;;5039834;28;20052;-75
2023/04/24 03:17:17;;;;;;;31.63;17.48;;;6.90;99.90;;;;;;5057874;28;20032;-75
2023/04/24 03:19:42;;;;;;;30.15;17.05;;;7.00;99.90;;;;;;5060943;28;20032;-74
2023/04/24 03:22:09;;;;;;;27.75;15.80;;;7.10;99.90;;;;;;5069773;28;20064;-75
2023/04/24 03:24:34;;;;;;;26.10;16.55;;;7.10;99.90;;;;;;5060810;28;20410;-75
2023/04/24 03:27:00;;;;;;;27.65;16.92;;;7.20;99.90;;;;;;5062270;28;20044;-75
2023/04/24 03:29:26;;;;;;;26.95;16.08;;;7.30;99.90;;;;;;5040921;28;20438;-75
2023/04/24 03:31:51;;;;;;;29.80;16.88;;;7.30;99.90;;;;;;5058325;28;20031;-75
2023/04/24 03:34:17;;;;;;;23.42;14.70;;;7.40;99.90;;;;;;5059229;28;20024;-75
2023/04/24 03:36:42;;;;;;;26.63;14.48;;;7.40;99.90;;;;;;5066477;28;20044;-75
2023/04/24 03:39:08;;;;;;;22.95;14.25;;;7.40;99.90;;;;;;5040482;28;20075;-75
2023/04/24 03:41:33;;;;;;;23.20;13.65;;;7.40;99.90;;;;;;5058327;28;20074;-75
2023/04/24 03:43:59;;;;;;;24.98;13.32;;;7.40;99.90;;;;;;5078129;28;20235;-75
2023/04/24 03:46:25;;;;;;;23.38;13.00;;;7.20;99.90;;;;;;5058105;28;20044;-75
2023/04/24 03:48:51;;;;;;;23.67;13.18;;;7.10;99.90;;;;;;5047844;28;20061;-76
2023/04/24 03:51:16;;;;;;;21.20;12.55;;;7.00;99.90;;;;;;5058136;28;20096;-75
2023/04/24 03:53:42;;;;;;;20.60;13.60;;;6.90;99.90;;;;;;5060238;28;20027;-75
2023/04/24 03:56:08;;;;;;;25.08;14.88;;;6.80;99.90;;;;;;5062522;28;20059;-75
2023/04/24 03:58:33;;;;;;;24.88;15.38;;;6.80;99.90;;;;;;5068799;28;20290;-74
2023/04/24 04:00:59;;;;;;;23.55;15.00;;;6.80;99.90;;;;;;5060644;28;20059;-76
2023/04/24 04:03:25;;;;;;;24.75;15.40;;;6.90;99.90;;;;;;5070879;28;20114;-75
2023/04/24 04:05:51;;;;;;;23.13;14.85;;;6.90;99.90;;;;;;5052553;28;20052;-75
2023/04/24 04:08:17;;;;;;;25.50;15.30;;;6.90;99.90;;;;;;5058708;28;20206;-75
2023/04/24 04:10:42;;;;;;;26.55;16.17;;;7.00;99.90;;;;;;5056282;28;20345;-74
2023/04/24 04:13:08;;;;;;;23.42;14.90;;;7.00;99.90;;;;;;5039535;28;20553;-75
2023/04/24 04:15:33;;;;;;;25.23;16.42;;;7.00;99.90;;;;;;5036371;28;20402;-74
2023/04/24 04:17:59;;;;;;;27.60;16.02;;;7.10;99.90;;;;;;5059333;28;20059;-75
2023/04/24 04:20:25;;;;;;;26.13;15.95;;;7.10;99.90;;;;;;5072737;28;20028;-75
2023/04/24 04:22:50;;;;;;;27.80;17.05;;;7.20;99.90;;;;;;5045934;28;20091;-75
2023/04/24 04:25:19;;;;;;;26.92;15.45;;;7.30;99.90;;;;;;5065319;28;20115;-75
2023/04/24 04:27:45;;;;;;;25.88;16.10;;;7.40;99.90;;;;;;5050008;28;20074;-75
2023/04/24 04:30:11;;;;;;;23.35;15.45;;;7.40;99.90;;;;;;5059114;28;20055;-75
2023/04/24 04:32:37;;;;;;;27.08;15.88;;;7.40;99.90;;;;;;5077880;28;20060;-75
2023/04/24 04:35:03;;;;;;;24.42;15.48;;;7.40;99.90;;;;;;5059821;28;20033;-75
2023/04/24 04:37:29;;;;;;;26.38;14.70;;;7.40;99.90;;;;;;5046317;28;20031;-75
2023/04/24 04:39:55;;;;;;;23.73;13.82;;;7.50;99.90;;;;;;5037854;28;20037;-75
2023/04/24 04:42:21;;;;;;;24.73;14.82;;;7.50;99.90;;;;;;5038548;28;20031;-74
2023/04/24 04:44:47;;;;;;;19.52;12.85;;;7.50;99.90;;;;;;5039517;28;20061;-75
2023/04/24 04:47:12;;;;;;;23.55;14.13;;;7.50;99.90;;;;;;5079170;28;20137;-75
2023/04/24 04:49:38;;;;;;;23.63;13.20;;;7.60;99.90;;;;;;5082577;28;20035;-75
2023/04/24 04:52:04;;;;;;;23.95;13.38;;;7.60;99.90;;;;;;5075522;28;20030;-75
2023/04/24 04:54:31;;;;;;;21.45;13.93;;;7.60;99.90;;;;;;5082249;28;20038;-75
2023/04/24 04:56:57;;;;;;;22.98;13.93;;;7.60;99.90;;;;;;5080872;28;20078;-75
2023/04/24 04:59:23;;;;;;;19.35;13.38;;;7.70;99.90;;;;;;5082267;28;20086;-75
2023/04/24 05:01:48;;;;;;;21.65;13.98;;;7.70;99.90;;;;;;5078883;28;20470;-75
2023/04/24 05:04:14;;;;;;;19.88;13.00;;;7.70;99.90;;;;;;5029529;28;20120;-75
2023/04/24 05:06:40;;;;;;;20.73;12.45;;;7.70;99.90;;;;;;5062109;28;20562;-75
2023/04/24 05:09:07;;;;;;;19.02;13.05;;;7.80;99.90;;;;;;5074067;28;20080;-75
2023/04/24 05:11:32;;;;;;;18.55;12.60;;;7.80;99.90;;;;;;5050256;28;20025;-75
2023/04/24 05:13:58;;;;;;;20.42;13.75;;;7.90;99.90;;;;;;5061517;28;20046;-74
2023/04/24 05:16:24;;;;;;;22.65;14.00;;;7.90;99.90;;;;;;5026296;28;20044;-75
2023/04/24 05:18:49;;;;;;;22.58;12.68;;;8.00;99.90;;;;;;5074513;28;20035;-75
2023/04/24 05:21:15;;;;;;;17.50;12.27;;;8.00;99.90;;;;;;5064140;28;20070;-75
2023/04/24 05:23:41;;;;;;;21.50;13.20;;;8.00;99.90;;;;;;5054805;28;20069;-75
2023/04/24 05:26:06;;;;;;;20.52;12.50;;;8.10;99.90;;;;;;5041434;28;20928;-75
2023/04/24 05:28:32;;;;;;;17.88;12.05;;;8.20;99.90;;;;;;5063007;28;20398;-76
2023/04/24 05:30:59;;;;;;;17.55;11.85;;;8.20;99.90;;;;;;5060606;28;20119;-75
2023/04/24 05:33:25;;;;;;;17.63;11.68;;;8.20;99.90;;;;;;5054550;28;20127;-75
2023/04/24 05:35:51;;;;;;;17.48;11.20;;;8.20;99.90;;;;;;5073140;28;20020;-75
2023/04/24 05:38:19;;;;;;;18.38;11.73;;;8.10;99.90;;;;;;5055328;28;20714;-75
2023/04/24 05:40:45;;;;;;;17.48;11.35;;;8.10;99.90;;;;;;5031711;28;20024;-75
2023/04/24 05:43:11;;;;;;;17.73;11.20;;;8.20;99.90;;;;;;5044653;28;20093;-76
2023/04/24 05:45:36;;;;;;;18.02;10.57;;;8.30;99.90;;;;;;5069846;28;20127;-74
2023/04/24 05:48:03;;;;;;;19.10;11.70;;;8.40;99.90;;;;;;5073638;28;20063;-75
2023/04/24 05:50:28;;;;;;;16.67;10.88;;;8.50;99.90;;;;;;5077248;28;20024;-76
2023/04/24 05:52:54;;;;;;;16.70;10.52;;;8.60;99.90;;;;;;5033756;28;20048;-76
2023/04/24 05:55:20;;;;;;;14.98;10.20;;;8.60;99.90;;;;;;5061992;28;20027;-76
2023/04/24 05:57:46;;;;;;;16.20;11.18;;;8.80;99.90;;;;;;5060270;28;20047;-75
2023/04/24 06:00:12;;;;;;;15.15;9.93;;;8.90;99.90;;;;;;5042674;28;20123;-75
2023/04/24 06:02:38;;;;;;;16.13;10.15;;;8.90;99.90;;;;;;5066097;28;20462;-75
2023/04/24 06:05:04;;;;;;;15.25;10.45;;;8.90;99.90;;;;;;5031270;28;20074;-76
2023/04/24 06:07:31;;;;;;;15.55;9.45;;;9.00;99.90;;;;;;5063214;28;20039;-75
2023/04/24 06:09:56;;;;;;;84.68;40.63;;;9.00;99.90;;;;;;5051982;28;20132;-75
2023/04/24 06:12:22;;;;;;;40.30;21.48;;;9.10;99.90;;;;;;5041030;28;20063;-75
2023/04/24 06:14:48;;;;;;;15.35;10.70;;;9.20;99.90;;;;;;5052872;28;20101;-75
2023/04/24 06:17:14;;;;;;;16.65;9.93;;;9.30;99.90;;;;;;5058645;28;20032;-78
2023/04/24 06:19:40;;;;;;;12.80;9.38;;;9.70;99.90;;;;;;5051499;28;20274;-77
2023/04/24 06:22:06;;;;;;;14.93;9.32;;;10.40;99.90;;;;;;5038671;28;20105;-75
2023/04/24 06:24:32;;;;;;;24.98;18.05;;;10.80;99.90;;;;;;5050888;28;20423;-76
2023/04/24 06:26:59;;;;;;;16.67;10.32;;;11.00;99.90;;;;;;5054572;28;20102;-76
2023/04/24 06:29:25;;;;;;;12.80;8.95;;;11.10;99.90;;;;;;5036155;28;20123;-75
2023/04/24 06:31:50;;;;;;;12.40;8.55;;;11.20;99.90;;;;;;5037579;28;20146;-76
2023/04/24 06:34:16;;;;;;;10.70;8.15;;;11.30;99.90;;;;;;5054489;28;20513;-75
2023/04/24 06:36:42;;;;;;;10.85;8.05;;;11.60;99.90;;;;;;5056570;28;20066;-76
2023/04/24 06:39:07;;;;;;;13.52;8.45;;;11.80;99.90;;;;;;5057281;28;20375;-75
2023/04/24 06:41:33;;;;;;;36.08;23.95;;;12.20;99.90;;;;;;5067225;28;20031;-76
2023/04/24 06:43:58;;;;;;;10.70;8.38;;;12.60;99.90;;;;;;5061565;28;20031;-75
2023/04/24 06:46:25;;;;;;;14.57;8.80;;;12.70;99.70;;;;;;5053744;28;20036;-75
2023/04/24 06:48:55;;;;;;;13.73;9.30;;;12.90;98.50;;;;;;5044302;28;20482;-75
2023/04/24 06:51:25;;;;;;;10.75;7.97;;;13.30;97.30;;;;;;5040538;28;20038;-76
2023/04/24 06:53:52;;;;;;;14.30;8.38;;;13.40;96.70;;;;;;5072134;28;20108;-77
2023/04/24 06:56:18;;;;;;;14.55;8.90;;;13.60;95.70;;;;;;5039472;28;20040;-76
2023/04/24 06:58:44;;;;;;;10.52;8.20;;;13.60;95.80;;;;;;5056116;28;20040;-76
2023/04/24 07:01:11;;;;;;;10.75;7.32;;;13.60;95.40;;;;;;5039193;28;20527;-75
2023/04/24 07:03:36;;;;;;;10.48;7.60;;;13.60;95.20;;;;;;5036436;28;20499;-76
2023/04/24 07:06:03;;;;;;;12.20;7.35;;;13.90;95.30;;;;;;5056691;28;20055;-76
2023/04/24 07:08:30;;;;;;;11.48;7.95;;;14.10;92.70;;;;;;4689407;28;9999761;-75
2023/04/24 07:10:56;;;;;;;12.05;7.72;;;14.30;92.30;;;;;;5063372;28;20165;-77
2023/04/24 07:13:23;;;;;;;10.35;7.50;;;14.70;92.40;;;;;;5038203;28;20063;-76
2023/04/24 07:15:50;;;;;;;9.45;7.03;;;15.20;87.00;;;;;;5054919;28;20035;-75
2023/04/24 07:18:16;;;;;;;9.32;6.97;;;15.60;83.80;;;;;;5040660;28;20983;-76
2023/04/24 07:20:42;;;;;;;10.43;7.97;;;15.90;79.70;;;;;;5045998;28;20605;-76
2023/04/24 07:23:08;;;;;;;15.27;8.95;;;16.40;73.50;;;;;;5027449;28;20618;-76
2023/04/24 07:25:33;;;;;;;11.82;8.05;;;16.60;69.90;;;;;;5049176;28;20039;-76
2023/04/24 07:27:59;;;;;;;10.07;7.45;;;17.00;69.40;;;;;;5051876;28;20028;-78
2023/04/24 07:30:25;;;;;;;8.85;6.82;;;17.30;63.40;;;;;;5026028;28;20094;-78
2023/04/24 07:32:50;;;;;;;9.52;6.95;;;18.00;57.00;;;;;;5029043;28;20529;-77
2023/04/24 07:35:16;;;;;;;9.80;6.85;;;18.00;58.00;;;;;;5043669;28;20032;-76
2023/04/24 07:37:45;;;;;;;11.07;6.95;;;17.90;57.90;;;;;;5032460;28;20028;-76
2023/04/24 07:40:12;;;;;;;11.15;7.30;;;18.10;57.70;;;;;;5049393;28;20501;-76
2023/04/24 07:42:38;;;;;;;8.73;6.70;;;18.20;58.10;;;;;;5049745;28;20158;-77
2023/04/24 07:45:04;;;;;;;9.85;6.78;;;18.30;57.40;;;;;;5049936;28;20514;-76
2023/04/24 07:47:30;;;;;;;9.15;6.38;;;19.10;55.20;;;;;;5035510;28;20423;-76
2023/04/24 07:49:56;;;;;;;9.25;6.95;;;20.10;50.50;;;;;;5035713;28;20039;-76
2023/04/24 07:52:21;;;;;;;9.90;6.68;;;19.80;51.60;;;;;;5035760;28;20133;-78
2023/04/24 07:54:47;;;;;;;11.25;6.85;;;20.00;51.20;;;;;;5055336;28;20494;-77
2023/04/24 07:57:13;;;;;;;9.07;6.10;;;21.60;47.90;;;;;;5056985;28;20071;-76
2023/04/24 07:59:39;;;;;;;7.97;5.85;;;21.40;46.20;;;;;;5040490;28;20032;-76
2023/04/24 08:02:06;;;;;;;8.52;7.00;;;21.00;47.40;;;;;;5039568;28;20036;-76
2023/04/24 08:04:31;;;;;;;9.85;6.13;;;20.60;45.40;;;;;;5055352;28;20024;-76
2023/04/24 08:06:57;;;;;;;8.27;5.88;;;22.40;46.10;;;;;;5035206;28;20056;-78
2023/04/24 08:09:23;;;;;;;8.63;5.40;;;24.50;41.10;;;;;;5042831;28;20379;-77
2023/04/24 08:11:48;;;;;;;7.60;5.70;;;26.80;39.00;;;;;;5040711;28;20044;-77
2023/04/24 08:14:14;;;;;;;7.80;5.63;;;28.60;34.70;;;;;;5055231;28;20115;-77
2023/04/24 08:16:40;;;;;;;6.35;5.07;;;30.40;33.10;;;;;;5055975;28;20078;-77
2023/04/24 08:19:06;;;;;;;5.25;4.75;;;30.70;30.60;;;;;;5048448;28;20036;-78
2023/04/24 08:21:32;;;;;;;7.75;5.20;;;32.00;29.60;;;;;;5060990;28;20024;-77
2023/04/24 08:23:58;;;;;;;7.03;5.22;;;32.30;29.20;;;;;;5050952;28;20052;-77
2023/04/24 08:26:24;;;;;;;6.20;5.60;;;30.50;29.00;;;;;;5057968;28;20123;-77
2023/04/24 08:28:50;;;;;;;7.43;6.28;;;27.40;31.90;;;;;;5048125;28;20126;-77
2023/04/24 08:31:15;;;;;;;8.23;5.95;;;25.30;36.10;;;;;;5042990;28;20071;-77
2023/04/24 08:33:41;;;;;;;8.07;5.72;;;24.20;39.30;;;;;;5063013;28;20103;-77
2023/04/24 08:36:07;;;;;;;7.30;5.40;;;24.90;39.60;;;;;;5062727;28;20035;-78
2023/04/24 08:38:33;;;;;;;7.20;4.90;;;27.20;36.00;;;;;;5061285;28;20063;-77
2023/04/24 08:41:01;;;;;;;8.02;4.90;;;29.80;33.40;;;;;;5042382;28;20136;-77
2023/04/24 08:43:27;;;;;;;6.45;5.10;;;29.70;29.10;;;;;;5049503;28;20428;-78
2023/04/24 08:45:55;;;;;;;7.57;4.80;;;28.80;30.60;;;;;;5042837;28;20051;-77
2023/04/24 08:48:22;;;;;;;6.35;4.60;;;27.90;34.00;;;;;;5039154;28;20062;-77
2023/04/24 08:50:50;;;;;;;5.88;4.60;;;28.00;34.30;;;;;;5050989;28;20042;-77
2023/04/24 08:53:17;;;;;;;6.22;4.60;;;29.30;31.50;;;;;;5048477;28;20047;-76
2023/04/24 08:55:46;;;;;;;6.35;5.03;;;29.30;29.00;;;;;;5040917;28;20037;-77
2023/04/24 08:58:13;;;;;;;6.07;4.45;;;28.80;30.60;;;;;;5040816;28;20094;-76
2023/04/24 09:00:39;;;;;;;7.88;5.22;;;27.50;32.20;;;;;;5043048;28;20036;-75
2023/04/24 09:03:06;;;;;;;6.47;4.78;;;25.90;34.90;;;;;;5042741;28;20582;-77
2023/04/24 09:05:32;;;;;;;8.10;5.22;;;24.40;36.60;;;;;;5068274;28;20124;-76
2023/04/24 09:08:01;;;;;;;8.05;5.60;;;23.20;39.90;;;;;;5059441;28;20044;-76
2023/04/24 09:10:30;;;;;;;8.25;6.07;;;22.20;41.80;;;;;;5046384;28;20039;-77
2023/04/24 09:12:58;;;;;;;8.52;5.63;;;21.60;44.50;;;;;;5038778;28;20032;-77
2023/04/24 09:15:24;;;;;;;5.78;4.93;;;21.60;44.80;;;;;;5053490;28;20427;-76
2023/04/24 09:17:50;;;;;;;8.95;4.88;;;21.80;46.50;;;;;;5036950;28;20036;-77
2023/04/24 09:20:27;;;;;;;6.93;4.72;;;23.00;43.80;;;;;;4745254;28;10000776;-77
2023/04/24 09:22:57;;;;;;;8.55;4.80;;;25.90;39.00;;;;;;5038737;28;20877;-77
2023/04/24 09:25:35;;;;;;;5.88;5.28;;;27.10;36.80;;;;;;5040045;28;20029;-77
2023/04/24 09:28:06;;;;;;;6.53;4.80;;;26.90;32.40;;;;;;5036691;28;20041;-77
2023/04/24 09:30:32;;;;;;;7.05;4.22;;;27.90;34.90;;;;;;5039365;28;20119;-77
2023/04/24 09:33:16;;;;;;;6.95;4.50;;;30.30;30.90;;;;;;5059332;28;20139;-77
2023/04/24 09:35:51;;;;;;;5.25;4.63;;;31.60;29.20;;;;;;5060217;28;20029;-77
2023/04/24 09:38:17;;;;;;;5.75;4.00;;;31.40;28.20;;;;;;5042762;28;20067;-78
2023/04/24 09:40:43;;;;;;;6.88;3.55;;;33.00;28.90;;;;;;5041278;28;20101;-77
2023/04/24 09:43:12;;;;;;;6.82;3.30;;;34.00;27.00;;;;;;5044196;28;20487;-77
2023/04/24 09:45:39;;;;;;;4.13;3.45;;;34.00;26.80;;;;;;5050550;28;20028;-77
2023/04/24 09:48:06;;;;;;;5.43;3.65;;;34.00;27.80;;;;;;5040395;28;20521;-77
2023/04/24 09:50:34;;;;;;;6.90;4.30;;;32.00;28.00;;;;;;5055217;28;20035;-78
2023/04/24 09:53:08;;;;;;;5.53;3.92;;;30.50;27.70;;;;;;5050713;28;20033;-76
2023/04/24 09:55:40;;;;;;;5.05;4.10;;;26.80;29.80;;;;;;5050124;28;20397;-77
2023/04/24 09:58:08;;;;;;;5.90;4.15;;;24.70;35.10;;;;;;5062159;28;20021;-76
2023/04/24 10:00:34;;;;;;;6.82;5.30;;;23.80;38.30;;;;;;5039183;28;20024;-76
2023/04/24 10:03:04;;;;;;;6.47;4.20;;;23.00;40.00;;;;;;5036048;28;20025;-76
2023/04/24 10:05:38;;;;;;;5.25;4.05;;;22.20;41.90;;;;;;5057208;28;20478;-75
2023/04/24 10:08:09;;;;;;;5.97;3.78;;;22.30;43.30;;;;;;5060795;28;20055;-76
2023/04/24 10:10:39;;;;;;;5.57;3.35;;;23.60;41.20;;;;;;5059418;28;20103;-75
2023/04/24 10:13:07;;;;;;;5.10;3.20;;;26.20;37.50;;;;;;5045045;28;20051;-77
2023/04/24 10:15:33;;;;;;;4.72;3.25;;;27.00;33.80;;;;;;5054218;28;20524;-76
2023/04/24 10:17:59;;;;;;;5.22;4.07;;;27.20;34.00;;;;;;5055775;28;20051;-77
2023/04/24 10:20:29;;;;;;;5.75;3.90;;;26.40;34.10;;;;;;5048556;28;20085;-76
2023/04/24 10:22:55;;;;;;;5.07;3.90;;;25.50;35.40;;;;;;5047135;28;20280;-78
2023/04/24 10:25:24;;;;;;;5.55;4.13;;;24.30;37.10;;;;;;5062105;28;20038;-77
2023/04/24 10:27:51;;;;;;;5.50;3.65;;;23.50;40.00;;;;;;5055249;28;20032;-76
2023/04/24 10:30:20;;;;;;;5.05;3.30;;;22.60;40.10;;;;;;5058231;28;20273;-76
2023/04/24 10:32:46;;;;;;;3.65;3.20;;;22.10;44.30;;;;;;5036697;28;20059;-76
2023/04/24 10:35:14;;;;;;;4.22;3.30;;;21.70;43.90;;;;;;5054149;28;20436;-76
2023/04/24 10:37:48;;;;;;;5.43;3.33;;;21.10;44.70;;;;;;5023931;28;20029;-76
2023/04/24 10:40:25;;;;;;;4.65;3.10;;;20.60;46.10;;;;;;5041452;28;20550;-76
2023/04/24 10:42:55;;;;;;;6.28;3.60;;;20.50;46.90;;;;;;5036011;28;20063;-75
2023/04/24 10:45:22;;;;;;;5.03;3.63;;;20.40;43.70;;;;;;5056548;28;20031;-76
2023/04/24 10:48:00;;;;;;;6.03;3.75;;;20.00;46.00;;;;;;5050363;28;20090;-76
2023/04/24 10:50:27;;;;;;;4.30;3.13;;;19.50;45.70;;;;;;5047319;28;20395;-77
2023/04/24 10:52:55;;;;;;;5.40;3.70;;;19.10;48.00;;;;;;5038835;28;20483;-76
2023/04/24 10:56:00;;;;;;;6.72;4.47;;;18.40;49.90;;;;;;5061417;28;20248;-76
2023/04/24 10:58:38;;;;;;;9.05;6.05;;;17.60;53.20;;;;;;5049673;28;20044;-76
2023/04/24 11:01:04;;;;;;;10.07;6.63;;;17.10;63.50;;;;;;5049085;28;20074;-76
2023/04/24 11:03:34;;;;;;;10.02;7.43;;;16.50;71.10;;;;;;5058399;28;20024;-75
2023/04/24 11:06:05;;;;;;;11.82;8.02;;;15.90;75.70;;;;;;5059028;28;20044;-75
2023/04/24 11:08:45;;;;;;;9.68;7.80;;;15.60;85.50;;;;;;5025217;28;20037;-76
2023/04/24 11:11:13;;;;;;;11.07;8.05;;;15.10;90.50;;;;;;5031778;28;20092;-75
2023/04/24 11:13:56;;;;;;;12.02;7.35;;;14.70;94.40;;;;;;5049817;28;20458;-76
2023/04/24 11:16:28;;;;;;;8.40;6.25;;;14.40;96.50;;;;;;5044700;28;20102;-75
2023/04/24 11:19:07;;;;;;;7.50;6.35;;;13.80;95.30;;;;;;5049439;28;20357;-75
2023/04/24 11:21:40;;;;;;;8.48;6.00;;;13.70;98.00;;;;;;5031342;28;20506;-75
2023/04/24 11:24:30;;;;;;;9.77;6.78;;;13.70;98.00;;;;;;5035076;28;20131;-75
2023/04/24 11:27:15;;;;;;;8.20;6.50;;;13.70;98.40;;;;;;5028080;28;20128;-75
2023/04/24 11:29:45;;;;;;;9.18;6.38;;;13.80;99.90;;;;;;5032408;28;20372;-75
2023/04/24 11:32:33;;;;;;;8.98;6.00;;;13.40;99.30;;;;;;5048062;28;20035;-76
2023/04/24 11:35:01;;;;;;;8.38;5.50;;;13.20;99.90;;;;;;5047516;28;20063;-75
2023/04/24 11:37:36;;;;;;;8.00;5.75;;;13.10;99.90;;;;;;5027518;28;20191;-76
2023/04/24 11:40:03;;;;;;;8.23;6.15;;;13.10;99.90;;;;;;5052409;28;20088;-75
2023/04/24 11:42:34;;;;;;;8.25;5.95;;;13.10;99.90;;;;;;5050488;28;20091;-75
2023/04/24 11:45:01;;;;;;;;;;;13.30;99.90;;;;;;5026692;28;20221;-75
2023/04/24 11:47:33;;;;;;;8.50;6.28;;;13.80;99.90;;;;;;5034811;28;19946;-75
2023/04/24 11:49:59;;;;;;;7.75;5.50;;;14.60;99.10;;;;;;5052392;28;20512;-75
2023/04/24 11:52:26;;;;;;;8.27;5.80;;;15.40;93.90;;;;;;5044270;28;20032;-78
2023/04/24 11:54:52;;;;;;;10.45;6.57;;;16.00;92.80;;;;;;5066571;28;20020;-75
2023/04/24 11:57:22;;;;;;;11.18;6.70;;;16.60;85.00;;;;;;5063584;28;20231;-76
2023/04/24 11:59:48;;;;;;;11.20;6.57;;;17.60;81.10;;;;;;5055990;28;20568;-76
2023/04/24 12:02:21;;;;;;;9.43;6.00;;;18.70;87.30;;;;;;5049494;28;20032;-76
2023/04/24 12:04:47;;;;;;;9.85;5.90;;;19.50;69.30;;;;;;5049483;28;20028;-76
2023/04/24 12:07:13;;;;;;;7.63;5.20;;;20.50;74.20;;;;;;5045368;28;20090;-77
2023/04/24 12:09:43;;;;;;;5.95;4.72;;;20.30;53.80;;;;;;5057674;28;20546;-75
2023/04/24 12:12:10;;;;;;;9.32;5.03;;;20.00;50.90;;;;;;5045929;28;20061;-75
2023/04/24 12:14:47;;;;;;;11.20;5.50;;;19.90;52.30;;;;;;5046575;28;20083;-75
2023/04/24 12:17:13;;;;;;;6.18;4.70;;;19.60;57.60;;;;;;5037362;28;20032;-76
2023/04/24 12:19:48;;;;;;;7.00;4.25;;;20.60;63.60;;;;;;5038242;28;20031;-76
2023/04/24 12:22:14;;;;;;;8.20;5.30;;;20.90;50.00;;;;;;5041514;28;20106;-75
2023/04/24 12:25:00;;;;;;;5.93;5.00;;;20.20;51.90;;;;;;5056803;28;20079;-76
2023/04/24 12:27:26;;;;;;;6.93;4.82;;;20.40;51.90;;;;;;5037864;28;20151;-76
2023/04/24 12:29:59;;;;;;;8.23;4.97;;;19.30;52.50;;;;;;5042097;28;20028;-75
2023/04/24 12:32:25;;;;;;;6.88;4.97;;;19.20;55.60;;;;;;5039057;28;20028;-76
2023/04/24 12:34:55;;;;;;;7.50;4.63;;;19.20;59.90;;;;;;5059067;28;20278;-75
2023/04/24 12:37:23;;;;;;;6.43;4.35;;;19.40;57.40;;;;;;5056599;28;20028;-76
2023/04/24 12:40:08;;;;;;;8.25;4.88;;;20.00;56.10;;;;;;5056562;28;20345;-76
2023/04/24 12:42:35;;;;;;;8.00;4.95;;;19.50;52.50;;;;;;5037841;28;20032;-76